Admiralengracht — PCDE — position and weather

sailwx.info

Track history (hours):
 
Tides and Currents Weather Stations Pressure Air Temp Water Temp Dewpoint Dewpoint Depression Visibility Wind Speed Wind Dir Waves Ship Positions

Admiralengracht

Last reported at 2018-May-24 16:38 UTC. Time now 2018-May-24 21:39 UTC.
Position N 55°30' E 007°47'.

Length 130 m; beam 19 m; draft 9 m.

Type: Ship. MMSI: 244170283.

Date/timePositionNaut miles runAvg speedWind from/ knotsBaromVisibWave heightAir tempDewpointWater temp
2018-May-24 16:38N 55°30' E 007°47'0 3.2
2018-May-24 16:30N 55°30' E 007°48'2 3.3
2018-May-24 16:01N 55°30' E 007°51'0 0.2
2018-May-24 15:30N 55°30' E 007°51'2 3.7
2018-May-24 15:00N 55°30' E 007°48'1 1.1
2018-May-24 14:30N 55°30' E 007°47'0 0.4
2018-May-24 14:01N 55°30' E 007°47'2 3.3
2018-May-24 13:30N 55°30' E 007°50'2 0.4
2018-May-24 09:00N 55°29' E 007°48'2 3.7
2018-May-24 08:31N 55°29' E 007°51'1 1.1
2018-May-24 08:00N 55°29' E 007°52'0 0.0
2018-May-24 07:29N 55°29' E 007°52'0 0.0
2018-May-24 07:00N 55°29' E 007°52'0 0.0
2018-May-24 06:30N 55°29' E 007°52'0 0.0
2018-May-24 06:01N 55°29' E 007°52'0 0.0
2018-May-24 05:31N 55°29' E 007°52'0 0.2
2018-May-24 05:01N 55°29' E 007°52'1 1.4
2018-May-24 04:31N 55°30' E 007°51'1 2.5
2018-May-24 04:01N 55°28' E 007°52'1 1.7
2018-May-24 03:30N 55°28' E 007°53'2 3.3
2018-May-24 03:00N 55°30' E 007°53'2 3.3
2018-May-24 02:31N 55°28' E 007°53'1 1.3
2018-May-24 02:00N 55°28' E 007°53'1 2.7
2018-May-24 01:31N 55°30' E 007°52'2 3.0
2018-May-24 01:00N 55°28' E 007°53'0 0.7
2018-May-24 00:31N 55°28' E 007°52'2 3.8
2018-May-24 00:01N 55°30' E 007°51'1 3.0
2018-May-23 23:31N 55°29' E 007°52'0 0.9
2018-May-23 23:00N 55°28' E 007°51'2 3.7
2018-May-23 22:31N 55°30' E 007°51'1 1.2
2018-May-23 22:01N 55°30' E 007°51'2 3.3
2018-May-23 21:31N 55°28' E 007°52'1 1.3
2018-May-23 21:01N 55°28' E 007°52'1 1.3
2018-May-23 20:30N 55°28' E 007°51'0 1.0
2018-May-23 20:00N 55°28' E 007°52'1 2.1
2018-May-23 19:31N 55°29' E 007°53'2 3.5
2018-May-23 19:01N 55°30' E 007°52'1 2.6
2018-May-23 18:30N 55°29' E 007°52'0 0.9
2018-May-23 18:00N 55°29' E 007°52'2 3.7
2018-May-23 17:31N 55°30' E 007°51'1 1.9
2018-May-23 17:01N 55°29' E 007°51'2 3.1
2018-May-23 16:30N 55°28' E 007°52'1 2.1
2018-May-23 16:00N 55°28' E 007°50'0 0.4
2018-May-23 15:31N 55°28' E 007°50'1 3.0
2018-May-23 15:00N 55°30' E 007°50'1 1.2
2018-May-23 14:31N 55°30' E 007°50'2 3.3
2018-May-23 14:00N 55°28' E 007°50'0 0.6
2018-May-23 13:31N 55°28' E 007°51'1 1.7
2018-May-23 13:01N 55°28' E 007°51'0 0.4
2018-May-23 12:31N 55°28' E 007°51'1 2.3
2018-May-23 12:00N 55°29' E 007°51'1 3.0
2018-May-23 11:30N 55°30' E 007°50'0 0.2
2018-May-23 11:00N 55°30' E 007°50'0 0.0
2018-May-23 10:31N 55°30' E 007°50'0 0.0
2018-May-23 10:00N 55°30' E 007°50'0 0.0
2018-May-23 09:30N 55°30' E 007°50'0 0.0
2018-May-23 09:00N 55°30' E 007°50'0 0.1
2018-May-23 08:30N 55°30' E 007°50'1 2.9
2018-May-23 08:00N 55°29' E 007°51'1 1.3
2018-May-23 07:30N 55°29' E 007°51'2 3.3
2018-May-23 07:00N 55°28' E 007°51'2 4.6
2018-May-23 06:30N 55°30' E 007°50'1 1.7
2018-May-23 05:59N 55°29' E 007°51'1 2.7
2018-May-23 05:30N 55°28' E 007°51'2 3.1
2018-May-23 05:00N 55°29' E 007°51'1 2.3
2018-May-23 04:30N 55°30' E 007°50'2 3.4
2018-May-23 04:00N 55°29' E 007°50'1 1.9
2018-May-23 03:30N 55°28' E 007°51'2 3.3
2018-May-23 03:00N 55°30' E 007°50'1 1.5
2018-May-23 02:30N 55°30' E 007°49'2 3.1
2018-May-23 02:00N 55°29' E 007°50'1 1.3
2018-May-23 01:31N 55°28' E 007°50'2 4.1
2018-May-23 01:00N 55°30' E 007°49'2 3.5
2018-May-23 00:30N 55°31' E 007°47'2 5.0
2018-May-23 00:00N 55°31' E 007°42'0 0.3
2018-May-22 23:30N 55°31' E 007°42'0 0.0
2018-May-22 22:59N 55°31' E 007°42'0 0.1
2018-May-22 22:28N 55°31' E 007°42'0 0.0
2018-May-22 22:00N 55°31' E 007°42'0 0.0
2018-May-22 21:30N 55°31' E 007°42'0 0.0
2018-May-22 21:00N 55°31' E 007°42'0 0.0
2018-May-22 20:30N 55°31' E 007°42'0 0.0
2018-May-22 20:00N 55°31' E 007°42'0 0.6
2018-May-22 19:30N 55°31' E 007°43'3 5.8
2018-May-22 19:00N 55°30' E 007°48'1 1.1
2018-May-22 18:30N 55°30' E 007°48'0 0.0
2018-May-22 18:00N 55°30' E 007°48'0 0.0
2018-May-22 17:30N 55°30' E 007°48'0 0.0
2018-May-22 17:00N 55°30' E 007°48'0 0.0
2018-May-22 16:30N 55°30' E 007°48'0 0.1
2018-May-22 16:00N 55°30' E 007°48'0 0.1
2018-May-22 15:30N 55°30' E 007°48'1 1.1
2018-May-22 15:00N 55°30' E 007°49'1 2.7
2018-May-22 14:30N 55°29' E 007°50'1 2.4
2018-May-22 14:00N 55°28' E 007°50'0 0.1
2018-May-22 13:30N 55°28' E 007°50'1 1.1
2018-May-22 13:00N 55°28' E 007°51'1 2.7
2018-May-22 12:30N 55°29' E 007°50'2 3.6
2018-May-22 12:00N 55°31' E 007°49'2 4.4
2018-May-22 11:30N 55°30' E 007°46'1 2.7
2018-May-22 11:00N 55°30' E 007°48'0 0.3
2018-May-22 10:29N 55°30' E 007°48'0 0.0
2018-May-22 10:00N 55°30' E 007°48'0 0.0
2018-May-22 09:30N 55°30' E 007°48'0 0.1
2018-May-22 09:00N 55°30' E 007°48'0 0.4
2018-May-22 08:30N 55°30' E 007°48'0 0.6
2018-May-22 08:00N 55°31' E 007°48'1 2.1
2018-May-22 07:30N 55°30' E 007°49'2 3.6
2018-May-22 07:00N 55°28' E 007°50'2 4.3
2018-May-22 06:29N 55°28' E 007°54'0 1.0
2018-May-22 06:00N 55°28' E 007°55'1 1.9
2018-May-22 05:30N 55°29' E 007°54'0 0.2
2018-May-22 05:00N 55°28' E 007°54'1 1.6
2018-May-22 04:30N 55°28' E 007°54'1 2.1
2018-May-22 04:00N 55°27' E 007°55'1 2.0
2018-May-22 03:30N 55°26' E 007°57'1 2.2
2018-May-22 03:00N 55°25' E 007°58'1 2.8
2018-May-22 02:30N 55°25' E 008°00'1 1.7
2018-May-22 02:00N 55°24' E 008°01'1 1.6
2018-May-22 01:30N 55°24' E 008°03'1 1.7
2018-May-22 01:00N 55°24' E 008°04'1 1.7
2018-May-22 00:30N 55°24' E 008°06'1 1.8
2018-May-22 00:00N 55°24' E 008°07'1 2.0
2018-May-21 23:30N 55°24' E 008°09'1 2.3
2018-May-21 23:00N 55°23' E 008°11'1 2.6
2018-May-21 22:30N 55°23' E 008°13'0 0.1
2018-May-21 22:00N 55°23' E 008°13'0 0.1
2018-May-21 21:30N 55°23' E 008°13'0 0.2
2018-May-21 21:00N 55°23' E 008°13'0 0.1
2018-May-21 20:30N 55°23' E 008°13'0 0.0
2018-May-21 20:00N 55°23' E 008°13'0 0.1
2018-May-21 19:30N 55°23' E 008°13'0 0.4
2018-May-21 19:00N 55°23' E 008°13'0 0.8
2018-May-21 18:30N 55°23' E 008°13'0 0.5
2018-May-21 18:00N 55°23' E 008°13'0 0.3
2018-May-21 17:30N 55°23' E 008°13'0 0.1
2018-May-21 17:00N 55°23' E 008°13'0 0.0
2018-May-21 16:31N 55°23' E 008°13'0 0.0
2018-May-21 16:00N 55°23' E 008°13'0 0.0
2018-May-21 15:30N 55°23' E 008°13'0 0.0
2018-May-21 15:00N 55°23' E 008°13'0 0.0
2018-May-21 14:30N 55°23' E 008°13'0 0.0
2018-May-21 14:00N 55°23' E 008°13'0 0.0
2018-May-21 13:30N 55°23' E 008°13'0 0.1
2018-May-21 13:00N 55°23' E 008°13'0 0.0
2018-May-21 12:30N 55°23' E 008°13'1 1.2
2018-May-21 12:01N 55°23' E 008°14'0 0.3
2018-May-21 11:30N 55°23' E 008°14'0 0.1
2018-May-21 11:00N 55°23' E 008°14'1 1.2
2018-May-21 10:30N 55°22' E 008°14'1 1.5
2018-May-21 10:00N 55°23' E 008°14'0 0.3
2018-May-21 09:30N 55°23' E 008°14'0 0.0
2018-May-21 09:00N 55°23' E 008°14'0 0.0
2018-May-21 08:30N 55°23' E 008°14'0 0.1
2018-May-21 08:00N 55°23' E 008°14'2 4.4
2018-May-21 07:30N 55°25' E 008°13'510.0
2018-May-21 07:00N 55°28' E 008°20'3 6.7
2018-May-21 06:30N 55°27' E 008°26'0 0.9
2018-May-21 05:58N 55°28' E 008°27'0 0.0
2018-May-21 05:29N 55°28' E 008°27'0 0.0
2018-May-21 04:59N 55°28' E 008°27'0 0.0
2018-May-21 04:29N 55°28' E 008°27'0 0.0
2018-May-21 04:00N 55°28' E 008°27'0 0.0
2018-May-21 03:30N 55°28' E 008°27'0 0.0
2018-May-21 02:57N 55°28' E 008°27'0 0.0
2018-May-21 02:25N 55°28' E 008°27'0 0.0
2018-May-21 01:40N 55°28' E 008°27'0 0.0
2018-May-21 01:26N 55°28' E 008°27'0 0.0
2018-May-21 00:53N 55°28' E 008°27'0 0.0
2018-May-21 00:29N 55°28' E 008°27'0 0.0
2018-May-20 23:54N 55°28' E 008°27'0 0.0
2018-May-20 23:27N 55°28' E 008°27'0 0.0
2018-May-20 23:00N 55°28' E 008°27'0 0.0
2018-May-20 22:13N 55°28' E 008°27'0 0.0
2018-May-20 21:19N 55°28' E 008°27'0 0.0
2018-May-20 20:58N 55°28' E 008°27'0 0.0
2018-May-20 20:05N 55°28' E 008°27'0 0.0
2018-May-20 19:56N 55°28' E 008°27'0 0.0
2018-May-20 19:18N 55°28' E 008°27'0 0.0
2018-May-20 18:51N 55°28' E 008°27'0 0.0
2018-May-20 18:27N 55°28' E 008°27'0 0.0
2018-May-20 17:54N 55°28' E 008°27'0 0.0
2018-May-20 17:16N 55°28' E 008°27'0 0.0
2018-May-20 16:49N 55°28' E 008°27'0 0.0
2018-May-20 16:14N 55°28' E 008°27'0 0.0
2018-May-20 15:59N 55°28' E 008°27'0 0.0
2018-May-20 15:23N 55°28' E 008°27'0 0.0
2018-May-20 14:56N 55°28' E 008°27'0 0.0
2018-May-20 14:21N 55°28' E 008°27'0 0.0
2018-May-20 13:54N 55°28' E 008°27'0 0.0
2018-May-20 13:30N 55°28' E 008°27'0 0.0
2018-May-20 12:58N 55°28' E 008°27'0 0.0
2018-May-20 12:28N 55°28' E 008°27'0 0.0
2018-May-20 11:53N 55°28' E 008°27'0 0.0
2018-May-20 11:29N 55°28' E 008°27'0 0.0
2018-May-20 10:50N 55°28' E 008°27'0 0.0
2018-May-20 10:27N 55°28' E 008°27'0 0.0
2018-May-20 09:48N 55°28' E 008°27'0 0.0
2018-May-20 09:27N 55°28' E 008°27'0 0.0
2018-May-20 09:00N 55°28' E 008°27'0 0.0
2018-May-20 08:13N 55°28' E 008°27'0 0.0
2018-May-20 07:49N 55°28' E 008°27'0 0.0
2018-May-20 07:20N 55°28' E 008°27'0 0.0
2018-May-20 06:59N 55°28' E 008°27'0 0.0
2018-May-20 06:20N 55°28' E 008°27'0 0.0
2018-May-20 05:57N 55°28' E 008°27'0 0.0
2018-May-20 05:18N 55°28' E 008°27'0 0.0
2018-May-20 04:51N 55°28' E 008°27'0 0.0
2018-May-20 04:30N 55°28' E 008°27'0 0.0
2018-May-20 03:55N 55°28' E 008°27'0 0.0
2018-May-20 03:28N 55°28' E 008°27'0 0.0
2018-May-20 02:47N 55°28' E 008°27'0 0.0
2018-May-20 02:26N 55°28' E 008°27'0 0.0
2018-May-20 01:59N 55°28' E 008°27'0 0.0
2018-May-20 01:24N 55°28' E 008°27'0 0.0
2018-May-20 00:57N 55°28' E 008°27'0 0.0
2018-May-20 00:30N 55°28' E 008°27'0 0.0
2018-May-19 23:58N 55°28' E 008°27'0 0.0
2018-May-19 23:16N 55°28' E 008°27'0 0.0
2018-May-19 22:52N 55°28' E 008°27'0 0.0
2018-May-19 22:28N 55°28' E 008°27'0 0.0
2018-May-19 21:53N 55°28' E 008°27'0 0.0
2018-May-19 21:29N 55°28' E 008°27'0 0.0
2018-May-19 20:59N 55°28' E 008°27'0 0.0
2018-May-19 20:24N 55°28' E 008°27'0 0.0
2018-May-19 20:00N 55°28' E 008°27'0 0.0
2018-May-19 19:22N 55°28' E 008°27'0 0.0
2018-May-19 18:46N 55°28' E 008°27'0 0.0
2018-May-19 18:22N 55°28' E 008°27'0 0.0
2018-May-19 17:55N 55°28' E 008°27'0 0.0
2018-May-19 17:20N 55°28' E 008°27'0 0.0
2018-May-19 16:21N 55°28' E 008°27'0 0.0
2018-May-19 15:54N 55°28' E 008°27'0 0.0
2018-May-19 15:18N 55°28' E 008°27'0 0.0
2018-May-19 14:37N 55°28' E 008°27'0 0.0
2018-May-19 14:28N 55°28' E 008°27'0 0.0
2018-May-19 13:52N 55°28' E 008°27'0 0.0
2018-May-19 13:23N 55°28' E 008°27'0 0.0
2018-May-19 12:50N 55°28' E 008°27'0 0.0
2018-May-19 12:23N 55°28' E 008°27'0 0.0
2018-May-19 12:00N 55°28' E 008°27'0 0.0
2018-May-19 11:30N 55°28' E 008°27'0 0.0
2018-May-19 11:00N 55°28' E 008°27'0 0.0
2018-May-19 10:30N 55°28' E 008°27'0 0.0
2018-May-19 10:00N 55°28' E 008°27'0 0.0
2018-May-19 09:30N 55°28' E 008°27'0 0.0
2018-May-19 09:00N 55°28' E 008°27'0 0.0
2018-May-19 08:30N 55°28' E 008°27'0 0.0
2018-May-19 08:00N 55°28' E 008°27'0 0.0
2018-May-19 07:30N 55°28' E 008°27'0 0.0
2018-May-19 07:00N 55°28' E 008°27'0 0.0
2018-May-19 06:30N 55°28' E 008°27'0 0.0
2018-May-19 06:00N 55°28' E 008°27'0 0.0
2018-May-19 05:29N 55°28' E 008°27'0 0.0
2018-May-19 05:00N 55°28' E 008°27'0 0.0
2018-May-19 04:30N 55°28' E 008°27'0 0.0
2018-May-19 03:58N 55°28' E 008°27'0 0.0
2018-May-19 03:30N 55°28' E 008°27'0 0.0
2018-May-19 03:00N 55°28' E 008°27'0 0.0
2018-May-19 02:30N 55°28' E 008°27'0 0.0
2018-May-19 02:00N 55°28' E 008°27'0 0.0
2018-May-19 01:30N 55°28' E 008°27'0 0.0
2018-May-19 01:00N 55°28' E 008°27'0 0.0
2018-May-19 00:30N 55°28' E 008°27'0 0.0
2018-May-19 00:00N 55°28' E 008°27'0 0.0
2018-May-18 23:30N 55°28' E 008°27'0 0.0
2018-May-18 23:00N 55°28' E 008°27'0 0.0
2018-May-18 22:30N 55°28' E 008°27'0 0.0
2018-May-18 22:00N 55°28' E 008°27'0 0.0
2018-May-18 21:30N 55°28' E 008°27'1 1.3
2018-May-18 21:00N 55°28' E 008°25'3 5.8
2018-May-18 20:30N 55°28' E 008°20'4 8.9
2018-May-18 20:00N 55°26' E 008°14'510.7
2018-May-18 19:30N 55°22' E 008°06'510.9
2018-May-18 19:00N 55°19' E 007°58'611.2
2018-May-18 18:30N 55°16' E 007°51'611.4
2018-May-18 18:00N 55°11' E 007°45'611.3
2018-May-18 17:30N 55°07' E 007°38'611.2
2018-May-18 17:00N 55°03' E 007°31'510.8
2018-May-18 16:30N 54°60' E 007°24'510.7
2018-May-18 16:00N 54°57' E 007°16'510.9
2018-May-18 15:30N 54°55' E 007°07'510.9
2018-May-18 15:00N 54°53' E 006°58'510.9
2018-May-18 14:30N 54°50' E 006°50'98 5.2
2018-May-17 19:34N 53°34' E 005°07'0 4.1
2018-May-17 19:29N 53°33' E 005°06'2 3.9
2018-May-17 19:00N 53°32' E 005°04'2 4.1
2018-May-17 18:30N 53°30' E 005°02'2 3.9
2018-May-17 18:00N 53°29' E 005°00'2 3.7
2018-May-17 17:30N 53°27' E 004°59'2 3.6
2018-May-17 17:00N 53°25' E 004°57'2 3.2
2018-May-17 16:30N 53°24' E 004°56'1 2.7
2018-May-17 16:00N 53°23' E 004°56'1 2.4
2018-May-17 15:30N 53°22' E 004°55'1 2.6
2018-May-17 15:00N 53°20' E 004°55'2 3.5
2018-May-17 14:30N 53°19' E 004°58'4 8.0
2018-May-17 14:00N 53°19' E 005°04'4 8.1
2018-May-17 13:30N 53°18' E 005°11'4 8.3
2018-May-17 13:00N 53°14' E 005°13'5 9.3
2018-May-17 12:30N 53°11' E 005°20'3 6.8
2018-May-17 12:00N 53°11' E 005°26'0 0.6
2018-May-17 11:30N 53°11' E 005°26'0 0.0
2018-May-17 11:00N 53°11' E 005°26'0 0.0
2018-May-17 10:30N 53°11' E 005°26'0 0.0
2018-May-17 10:00N 53°11' E 005°26'0 0.0
2018-May-17 09:30N 53°11' E 005°26'0 0.0
2018-May-17 09:00N 53°11' E 005°26'0 0.0
2018-May-17 08:30N 53°11' E 005°26'0 0.0
2018-May-17 08:00N 53°11' E 005°26'0 0.0
2018-May-17 07:30N 53°11' E 005°26'0 0.0
2018-May-17 07:00N 53°11' E 005°26'0 0.0
2018-May-17 06:30N 53°11' E 005°26'0 0.0
2018-May-17 06:00N 53°11' E 005°26'0 0.0
2018-May-17 05:30N 53°11' E 005°26'0 0.0
2018-May-17 05:00N 53°11' E 005°26'0 0.0
2018-May-17 04:30N 53°11' E 005°26'0 0.0
2018-May-17 04:00N 53°11' E 005°26'0 0.0
2018-May-17 03:30N 53°11' E 005°26'0 0.0
2018-May-17 03:00N 53°11' E 005°26'0 0.0
2018-May-17 02:30N 53°11' E 005°26'0 0.0
2018-May-17 02:00N 53°11' E 005°26'0 0.0
2018-May-17 01:30N 53°11' E 005°26'0 0.0
2018-May-17 01:00N 53°11' E 005°26'0 0.0
2018-May-17 00:30N 53°11' E 005°26'0 0.0
2018-May-17 00:00N 53°11' E 005°26'0 0.0
2018-May-16 23:30N 53°11' E 005°26'0 0.0
2018-May-16 23:00N 53°11' E 005°26'0 0.0
2018-May-16 22:30N 53°11' E 005°26'0 0.0
2018-May-16 22:00N 53°11' E 005°26'0 0.0
2018-May-16 21:30N 53°11' E 005°26'0 0.0
2018-May-16 21:00N 53°11' E 005°26'0 0.0
2018-May-16 20:30N 53°11' E 005°26'0 0.0
2018-May-16 20:00N 53°11' E 005°26'0 0.0
2018-May-16 19:30N 53°11' E 005°26'0 0.0
2018-May-16 19:00N 53°11' E 005°26'0 0.0
2018-May-16 18:30N 53°11' E 005°26'0 0.0
2018-May-16 18:00N 53°11' E 005°26'0 0.0
2018-May-16 17:30N 53°11' E 005°26'0 0.0
2018-May-16 17:00N 53°11' E 005°26'0 0.4
2018-May-16 16:30N 53°11' E 005°26'0 0.0
2018-May-16 16:00N 53°11' E 005°26'0 0.0
2018-May-16 15:30N 53°11' E 005°26'0 0.0
2018-May-16 15:00N 53°11' E 005°26'0 0.0
2018-May-16 14:30N 53°11' E 005°26'0 0.0
2018-May-16 14:00N 53°11' E 005°26'0 0.0
2018-May-16 13:30N 53°11' E 005°26'0 0.0
2018-May-16 13:00N 53°11' E 005°26'0 0.0
2018-May-16 12:30N 53°11' E 005°26'0 0.0
2018-May-16 12:00N 53°11' E 005°26'0 0.0
2018-May-16 11:30N 53°11' E 005°26'0 0.0
2018-May-16 11:00N 53°11' E 005°26'0 0.0
2018-May-16 10:30N 53°11' E 005°26'1 2.7
2018-May-16 10:01N 53°10' E 005°24'2 3.5
2018-May-16 09:30N 53°11' E 005°22'3 5.3
2018-May-16 09:00N 53°11' E 005°26'0 0.0
2018-May-16 08:30N 53°11' E 005°26'0 0.3
2018-May-16 08:00N 53°11' E 005°26'0 0.0
2018-May-16 07:30N 53°11' E 005°26'0 0.0
2018-May-16 07:00N 53°11' E 005°26'0 0.0
2018-May-16 06:30N 53°11' E 005°26'0 0.0
2018-May-16 06:00N 53°11' E 005°26'0 0.0
2018-May-16 05:30N 53°11' E 005°26'0 0.0
2018-May-16 05:00N 53°11' E 005°26'0 0.0
2018-May-16 04:30N 53°11' E 005°26'0 0.0
2018-May-16 04:00N 53°11' E 005°26'0 0.0
2018-May-16 03:30N 53°11' E 005°26'0 0.0
2018-May-16 03:00N 53°11' E 005°26'0 0.0
2018-May-16 02:30N 53°11' E 005°26'0 0.0
2018-May-16 02:00N 53°11' E 005°26'0 0.0
2018-May-16 01:30N 53°11' E 005°26'0 0.0
2018-May-16 01:00N 53°11' E 005°26'0 0.0
2018-May-16 00:30N 53°11' E 005°26'0 0.0
2018-May-16 00:00N 53°11' E 005°26'0 0.0
2018-May-15 23:30N 53°11' E 005°26'0 0.0
2018-May-15 23:00N 53°11' E 005°26'0 0.0
2018-May-15 22:30N 53°11' E 005°26'0 0.0
2018-May-15 22:00N 53°11' E 005°26'0 0.0
2018-May-15 21:30N 53°11' E 005°26'0 0.0
2018-May-15 21:00N 53°11' E 005°26'0 0.0
2018-May-15 20:30N 53°11' E 005°26'0 0.0
2018-May-15 20:00N 53°11' E 005°26'0 0.0
2018-May-15 19:30N 53°11' E 005°26'0 0.0
2018-May-15 19:00N 53°11' E 005°26'0 0.0
2018-May-15 18:30N 53°11' E 005°26'0 0.0
2018-May-15 18:00N 53°11' E 005°26'0 0.0
2018-May-15 17:30N 53°11' E 005°26'0 0.0
2018-May-15 17:00N 53°11' E 005°26'0 0.0
2018-May-15 16:30N 53°11' E 005°26'0 0.0
2018-May-15 16:00N 53°11' E 005°26'0 0.4
2018-May-15 15:30N 53°11' E 005°26'0 0.0
2018-May-15 15:00N 53°11' E 005°26'0 0.0
2018-May-15 14:30N 53°11' E 005°26'0 0.4
2018-May-15 14:00N 53°11' E 005°26'0 0.0
2018-May-15 13:30N 53°11' E 005°26'0 0.0
2018-May-15 13:00N 53°11' E 005°26'0 0.0
2018-May-15 12:30N 53°11' E 005°26'0 0.0
2018-May-15 12:00N 53°11' E 005°26'0 0.0
2018-May-15 11:30N 53°11' E 005°26'0 0.0
2018-May-15 11:00N 53°11' E 005°26'0 0.0
2018-May-15 10:30N 53°11' E 005°26'0 0.0
2018-May-15 10:00N 53°11' E 005°26'0 0.0
2018-May-15 09:30N 53°11' E 005°26'0 0.0
2018-May-15 09:00N 53°11' E 005°26'0 0.0
2018-May-15 08:30N 53°11' E 005°26'0 0.0
2018-May-15 08:00N 53°11' E 005°26'0 0.0
2018-May-15 07:30N 53°11' E 005°26'0 0.0
2018-May-15 07:00N 53°11' E 005°26'0 0.0
2018-May-15 06:30N 53°11' E 005°26'0 0.0
2018-May-15 06:00N 53°11' E 005°26'0 0.0
2018-May-15 05:30N 53°11' E 005°26'0 0.0
2018-May-15 05:00N 53°11' E 005°26'0 0.0
2018-May-15 04:30N 53°11' E 005°26'0 0.0
2018-May-15 04:00N 53°11' E 005°26'0 0.0
2018-May-15 03:30N 53°11' E 005°26'0 0.0
2018-May-15 03:00N 53°11' E 005°26'0 0.0
2018-May-15 02:30N 53°11' E 005°26'0 0.0
2018-May-15 02:00N 53°11' E 005°26'0 0.0
2018-May-15 01:30N 53°11' E 005°26'0 0.0
2018-May-15 01:00N 53°11' E 005°26'0 0.0
2018-May-15 00:30N 53°11' E 005°26'0 0.0
2018-May-15 00:00N 53°11' E 005°26'0 0.0
2018-May-14 23:30N 53°11' E 005°26'0 0.0
2018-May-14 23:00N 53°11' E 005°26'0 0.0
2018-May-14 22:30N 53°11' E 005°26'0 0.0
2018-May-14 22:00N 53°11' E 005°26'0 0.0
2018-May-14 21:30N 53°11' E 005°26'0 0.0
2018-May-14 21:00N 53°11' E 005°26'0 0.0
2018-May-14 20:30N 53°11' E 005°26'0 0.0
2018-May-14 20:00N 53°11' E 005°26'0 0.0
2018-May-14 19:30N 53°11' E 005°26'0 0.0
2018-May-14 19:00N 53°11' E 005°26'0 0.0
2018-May-14 18:30N 53°11' E 005°26'0 0.0
2018-May-14 18:00N 53°11' E 005°26'0 0.0
2018-May-14 17:30N 53°11' E 005°26'0 0.0
2018-May-14 17:00N 53°11' E 005°26'  
Track history (hours):
 
Tides and Currents Weather Stations Pressure Air Temp Water Temp Dewpoint Dewpoint Depression Visibility Wind Speed Wind Dir Waves Ship Positions

Admiralengracht

Last reported at 2018-May-24 16:38 UTC. Time now 2018-May-24 21:39 UTC.
Position N 55°30' E 007°47'.

Length 130 m; beam 19 m; draft 9 m.

Type: Ship. MMSI: 244170283.

Date/timePositionNaut miles runAvg speedWind from/ knotsBaromVisibWave heightAir tempDewpointWater temp
2018-May-24 16:38N 55°30' E 007°47'0 3.2
2018-May-24 16:30N 55°30' E 007°48'2 3.3
2018-May-24 16:01N 55°30' E 007°51'0 0.2
2018-May-24 15:30N 55°30' E 007°51'2 3.7
2018-May-24 15:00N 55°30' E 007°48'1 1.1
2018-May-24 14:30N 55°30' E 007°47'0 0.4
2018-May-24 14:01N 55°30' E 007°47'2 3.3
2018-May-24 13:30N 55°30' E 007°50'2 0.4
2018-May-24 09:00N 55°29' E 007°48'2 3.7
2018-May-24 08:31N 55°29' E 007°51'1 1.1
2018-May-24 08:00N 55°29' E 007°52'0 0.0
2018-May-24 07:29N 55°29' E 007°52'0 0.0
2018-May-24 07:00N 55°29' E 007°52'0 0.0
2018-May-24 06:30N 55°29' E 007°52'0 0.0
2018-May-24 06:01N 55°29' E 007°52'0 0.0
2018-May-24 05:31N 55°29' E 007°52'0 0.2
2018-May-24 05:01N 55°29' E 007°52'1 1.4
2018-May-24 04:31N 55°30' E 007°51'1 2.5
2018-May-24 04:01N 55°28' E 007°52'1 1.7
2018-May-24 03:30N 55°28' E 007°53'2 3.3
2018-May-24 03:00N 55°30' E 007°53'2 3.3
2018-May-24 02:31N 55°28' E 007°53'1 1.3
2018-May-24 02:00N 55°28' E 007°53'1 2.7
2018-May-24 01:31N 55°30' E 007°52'2 3.0
2018-May-24 01:00N 55°28' E 007°53'0 0.7
2018-May-24 00:31N 55°28' E 007°52'2 3.8
2018-May-24 00:01N 55°30' E 007°51'1 3.0
2018-May-23 23:31N 55°29' E 007°52'0 0.9
2018-May-23 23:00N 55°28' E 007°51'2 3.7
2018-May-23 22:31N 55°30' E 007°51'1 1.2
2018-May-23 22:01N 55°30' E 007°51'2 3.3
2018-May-23 21:31N 55°28' E 007°52'1 1.3
2018-May-23 21:01N 55°28' E 007°52'1 1.3
2018-May-23 20:30N 55°28' E 007°51'0 1.0
2018-May-23 20:00N 55°28' E 007°52'1 2.1
2018-May-23 19:31N 55°29' E 007°53'2 3.5
2018-May-23 19:01N 55°30' E 007°52'1 2.6
2018-May-23 18:30N 55°29' E 007°52'0 0.9
2018-May-23 18:00N 55°29' E 007°52'2 3.7
2018-May-23 17:31N 55°30' E 007°51'1 1.9
2018-May-23 17:01N 55°29' E 007°51'2 3.1
2018-May-23 16:30N 55°28' E 007°52'1 2.1
2018-May-23 16:00N 55°28' E 007°50'0 0.4
2018-May-23 15:31N 55°28' E 007°50'1 3.0
2018-May-23 15:00N 55°30' E 007°50'1 1.2
2018-May-23 14:31N 55°30' E 007°50'2 3.3
2018-May-23 14:00N 55°28' E 007°50'0 0.6
2018-May-23 13:31N 55°28' E 007°51'1 1.7
2018-May-23 13:01N 55°28' E 007°51'0 0.4
2018-May-23 12:31N 55°28' E 007°51'1 2.3
2018-May-23 12:00N 55°29' E 007°51'1 3.0
2018-May-23 11:30N 55°30' E 007°50'0 0.2
2018-May-23 11:00N 55°30' E 007°50'0 0.0
2018-May-23 10:31N 55°30' E 007°50'0 0.0
2018-May-23 10:00N 55°30' E 007°50'0 0.0
2018-May-23 09:30N 55°30' E 007°50'0 0.0
2018-May-23 09:00N 55°30' E 007°50'0 0.1
2018-May-23 08:30N 55°30' E 007°50'1 2.9
2018-May-23 08:00N 55°29' E 007°51'1 1.3
2018-May-23 07:30N 55°29' E 007°51'2 3.3
2018-May-23 07:00N 55°28' E 007°51'2 4.6
2018-May-23 06:30N 55°30' E 007°50'1 1.7
2018-May-23 05:59N 55°29' E 007°51'1 2.7
2018-May-23 05:30N 55°28' E 007°51'2 3.1
2018-May-23 05:00N 55°29' E 007°51'1 2.3
2018-May-23 04:30N 55°30' E 007°50'2 3.4
2018-May-23 04:00N 55°29' E 007°50'1 1.9
2018-May-23 03:30N 55°28' E 007°51'2 3.3
2018-May-23 03:00N 55°30' E 007°50'1 1.5
2018-May-23 02:30N 55°30' E 007°49'2 3.1
2018-May-23 02:00N 55°29' E 007°50'1 1.3
2018-May-23 01:31N 55°28' E 007°50'2 4.1
2018-May-23 01:00N 55°30' E 007°49'2 3.5
2018-May-23 00:30N 55°31' E 007°47'2 5.0
2018-May-23 00:00N 55°31' E 007°42'0 0.3
2018-May-22 23:30N 55°31' E 007°42'0 0.0
2018-May-22 22:59N 55°31' E 007°42'0 0.1
2018-May-22 22:28N 55°31' E 007°42'0 0.0
2018-May-22 22:00N 55°31' E 007°42'0 0.0
2018-May-22 21:30N 55°31' E 007°42'0 0.0
2018-May-22 21:00N 55°31' E 007°42'0 0.0
2018-May-22 20:30N 55°31' E 007°42'0 0.0
2018-May-22 20:00N 55°31' E 007°42'0 0.6
2018-May-22 19:30N 55°31' E 007°43'3 5.8
2018-May-22 19:00N 55°30' E 007°48'1 1.1
2018-May-22 18:30N 55°30' E 007°48'0 0.0
2018-May-22 18:00N 55°30' E 007°48'0 0.0
2018-May-22 17:30N 55°30' E 007°48'0 0.0
2018-May-22 17:00N 55°30' E 007°48'0 0.0
2018-May-22 16:30N 55°30' E 007°48'0 0.1
2018-May-22 16:00N 55°30' E 007°48'0 0.1
2018-May-22 15:30N 55°30' E 007°48'1 1.1
2018-May-22 15:00N 55°30' E 007°49'1 2.7
2018-May-22 14:30N 55°29' E 007°50'1 2.4
2018-May-22 14:00N 55°28' E 007°50'0 0.1
2018-May-22 13:30N 55°28' E 007°50'1 1.1
2018-May-22 13:00N 55°28' E 007°51'1 2.7
2018-May-22 12:30N 55°29' E 007°50'2 3.6
2018-May-22 12:00N 55°31' E 007°49'2 4.4
2018-May-22 11:30N 55°30' E 007°46'1 2.7
2018-May-22 11:00N 55°30' E 007°48'0 0.3
2018-May-22 10:29N 55°30' E 007°48'0 0.0
2018-May-22 10:00N 55°30' E 007°48'0 0.0
2018-May-22 09:30N 55°30' E 007°48'0 0.1
2018-May-22 09:00N 55°30' E 007°48'0 0.4
2018-May-22 08:30N 55°30' E 007°48'0 0.6
2018-May-22 08:00N 55°31' E 007°48'1 2.1
2018-May-22 07:30N 55°30' E 007°49'2 3.6
2018-May-22 07:00N 55°28' E 007°50'2 4.3
2018-May-22 06:29N 55°28' E 007°54'0 1.0
2018-May-22 06:00N 55°28' E 007°55'1 1.9
2018-May-22 05:30N 55°29' E 007°54'0 0.2
2018-May-22 05:00N 55°28' E 007°54'1 1.6
2018-May-22 04:30N 55°28' E 007°54'1 2.1
2018-May-22 04:00N 55°27' E 007°55'1 2.0
2018-May-22 03:30N 55°26' E 007°57'1 2.2
2018-May-22 03:00N 55°25' E 007°58'1 2.8
2018-May-22 02:30N 55°25' E 008°00'1 1.7
2018-May-22 02:00N 55°24' E 008°01'1 1.6
2018-May-22 01:30N 55°24' E 008°03'1 1.7
2018-May-22 01:00N 55°24' E 008°04'1 1.7
2018-May-22 00:30N 55°24' E 008°06'1 1.8
2018-May-22 00:00N 55°24' E 008°07'1 2.0
2018-May-21 23:30N 55°24' E 008°09'1 2.3
2018-May-21 23:00N 55°23' E 008°11'1 2.6
2018-May-21 22:30N 55°23' E 008°13'0 0.1
2018-May-21 22:00N 55°23' E 008°13'0 0.1
2018-May-21 21:30N 55°23' E 008°13'0 0.2
2018-May-21 21:00N 55°23' E 008°13'0 0.1
2018-May-21 20:30N 55°23' E 008°13'0 0.0
2018-May-21 20:00N 55°23' E 008°13'0 0.1
2018-May-21 19:30N 55°23' E 008°13'0 0.4
2018-May-21 19:00N 55°23' E 008°13'0 0.8
2018-May-21 18:30N 55°23' E 008°13'0 0.5
2018-May-21 18:00N 55°23' E 008°13'0 0.3
2018-May-21 17:30N 55°23' E 008°13'0 0.1
2018-May-21 17:00N 55°23' E 008°13'0 0.0
2018-May-21 16:31N 55°23' E 008°13'0 0.0
2018-May-21 16:00N 55°23' E 008°13'0 0.0
2018-May-21 15:30N 55°23' E 008°13'0 0.0
2018-May-21 15:00N 55°23' E 008°13'0 0.0
2018-May-21 14:30N 55°23' E 008°13'0 0.0
2018-May-21 14:00N 55°23' E 008°13'0 0.0
2018-May-21 13:30N 55°23' E 008°13'0 0.1
2018-May-21 13:00N 55°23' E 008°13'0 0.0
2018-May-21 12:30N 55°23' E 008°13'1 1.2
2018-May-21 12:01N 55°23' E 008°14'0 0.3
2018-May-21 11:30N 55°23' E 008°14'0 0.1
2018-May-21 11:00N 55°23' E 008°14'1 1.2
2018-May-21 10:30N 55°22' E 008°14'1 1.5
2018-May-21 10:00N 55°23' E 008°14'0 0.3
2018-May-21 09:30N 55°23' E 008°14'0 0.0
2018-May-21 09:00N 55°23' E 008°14'0 0.0
2018-May-21 08:30N 55°23' E 008°14'0 0.1
2018-May-21 08:00N 55°23' E 008°14'2 4.4
2018-May-21 07:30N 55°25' E 008°13'510.0
2018-May-21 07:00N 55°28' E 008°20'3 6.7
2018-May-21 06:30N 55°27' E 008°26'0 0.9
2018-May-21 05:58N 55°28' E 008°27'0 0.0
2018-May-21 05:29N 55°28' E 008°27'0 0.0
2018-May-21 04:59N 55°28' E 008°27'0 0.0
2018-May-21 04:29N 55°28' E 008°27'0 0.0
2018-May-21 04:00N 55°28' E 008°27'0 0.0
2018-May-21 03:30N 55°28' E 008°27'0 0.0
2018-May-21 02:57N 55°28' E 008°27'0 0.0
2018-May-21 02:25N 55°28' E 008°27'0 0.0
2018-May-21 01:40N 55°28' E 008°27'0 0.0
2018-May-21 01:26N 55°28' E 008°27'0 0.0
2018-May-21 00:53N 55°28' E 008°27'0 0.0
2018-May-21 00:29N 55°28' E 008°27'0 0.0
2018-May-20 23:54N 55°28' E 008°27'0 0.0
2018-May-20 23:27N 55°28' E 008°27'0 0.0
2018-May-20 23:00N 55°28' E 008°27'0 0.0
2018-May-20 22:13N 55°28' E 008°27'0 0.0
2018-May-20 21:19N 55°28' E 008°27'0 0.0
2018-May-20 20:58N 55°28' E 008°27'0 0.0
2018-May-20 20:05N 55°28' E 008°27'0 0.0
2018-May-20 19:56N 55°28' E 008°27'0 0.0
2018-May-20 19:18N 55°28' E 008°27'0 0.0
2018-May-20 18:51N 55°28' E 008°27'0 0.0
2018-May-20 18:27N 55°28' E 008°27'0 0.0
2018-May-20 17:54N 55°28' E 008°27'0 0.0
2018-May-20 17:16N 55°28' E 008°27'0 0.0
2018-May-20 16:49N 55°28' E 008°27'0 0.0
2018-May-20 16:14N 55°28' E 008°27'0 0.0
2018-May-20 15:59N 55°28' E 008°27'0 0.0
2018-May-20 15:23N 55°28' E 008°27'0 0.0
2018-May-20 14:56N 55°28' E 008°27'0 0.0
2018-May-20 14:21N 55°28' E 008°27'0 0.0
2018-May-20 13:54N 55°28' E 008°27'0 0.0
2018-May-20 13:30N 55°28' E 008°27'0 0.0
2018-May-20 12:58N 55°28' E 008°27'0 0.0
2018-May-20 12:28N 55°28' E 008°27'0 0.0
2018-May-20 11:53N 55°28' E 008°27'0 0.0
2018-May-20 11:29N 55°28' E 008°27'0 0.0
2018-May-20 10:50N 55°28' E 008°27'0 0.0
2018-May-20 10:27N 55°28' E 008°27'0 0.0
2018-May-20 09:48N 55°28' E 008°27'0 0.0
2018-May-20 09:27N 55°28' E 008°27'0 0.0
2018-May-20 09:00N 55°28' E 008°27'0 0.0
2018-May-20 08:13N 55°28' E 008°27'0 0.0
2018-May-20 07:49N 55°28' E 008°27'0 0.0
2018-May-20 07:20N 55°28' E 008°27'0 0.0
2018-May-20 06:59N 55°28' E 008°27'0 0.0
2018-May-20 06:20N 55°28' E 008°27'0 0.0
2018-May-20 05:57N 55°28' E 008°27'0 0.0
2018-May-20 05:18N 55°28' E 008°27'0 0.0
2018-May-20 04:51N 55°28' E 008°27'0 0.0
2018-May-20 04:30N 55°28' E 008°27'0 0.0
2018-May-20 03:55N 55°28' E 008°27'0 0.0
2018-May-20 03:28N 55°28' E 008°27'0 0.0
2018-May-20 02:47N 55°28' E 008°27'0 0.0
2018-May-20 02:26N 55°28' E 008°27'0 0.0
2018-May-20 01:59N 55°28' E 008°27'0 0.0
2018-May-20 01:24N 55°28' E 008°27'0 0.0
2018-May-20 00:57N 55°28' E 008°27'0 0.0
2018-May-20 00:30N 55°28' E 008°27'0 0.0
2018-May-19 23:58N 55°28' E 008°27'0 0.0
2018-May-19 23:16N 55°28' E 008°27'0 0.0
2018-May-19 22:52N 55°28' E 008°27'0 0.0
2018-May-19 22:28N 55°28' E 008°27'0 0.0
2018-May-19 21:53N 55°28' E 008°27'0 0.0
2018-May-19 21:29N 55°28' E 008°27'0 0.0
2018-May-19 20:59N 55°28' E 008°27'0 0.0
2018-May-19 20:24N 55°28' E 008°27'0 0.0
2018-May-19 20:00N 55°28' E 008°27'0 0.0
2018-May-19 19:22N 55°28' E 008°27'0 0.0
2018-May-19 18:46N 55°28' E 008°27'0 0.0
2018-May-19 18:22N 55°28' E 008°27'0 0.0
2018-May-19 17:55N 55°28' E 008°27'0 0.0
2018-May-19 17:20N 55°28' E 008°27'0 0.0
2018-May-19 16:21N 55°28' E 008°27'0 0.0
2018-May-19 15:54N 55°28' E 008°27'0 0.0
2018-May-19 15:18N 55°28' E 008°27'0 0.0
2018-May-19 14:37N 55°28' E 008°27'0 0.0
2018-May-19 14:28N 55°28' E 008°27'0 0.0
2018-May-19 13:52N 55°28' E 008°27'0 0.0
2018-May-19 13:23N 55°28' E 008°27'0 0.0
2018-May-19 12:50N 55°28' E 008°27'0 0.0
2018-May-19 12:23N 55°28' E 008°27'0 0.0
2018-May-19 12:00N 55°28' E 008°27'0 0.0
2018-May-19 11:30N 55°28' E 008°27'0 0.0
2018-May-19 11:00N 55°28' E 008°27'0 0.0
2018-May-19 10:30N 55°28' E 008°27'0 0.0
2018-May-19 10:00N 55°28' E 008°27'0 0.0
2018-May-19 09:30N 55°28' E 008°27'0 0.0
2018-May-19 09:00N 55°28' E 008°27'0 0.0
2018-May-19 08:30N 55°28' E 008°27'0 0.0
2018-May-19 08:00N 55°28' E 008°27'0 0.0
2018-May-19 07:30N 55°28' E 008°27'0 0.0
2018-May-19 07:00N 55°28' E 008°27'0 0.0
2018-May-19 06:30N 55°28' E 008°27'0 0.0
2018-May-19 06:00N 55°28' E 008°27'0 0.0
2018-May-19 05:29N 55°28' E 008°27'0 0.0
2018-May-19 05:00N 55°28' E 008°27'0 0.0
2018-May-19 04:30N 55°28' E 008°27'0 0.0
2018-May-19 03:58N 55°28' E 008°27'0 0.0
2018-May-19 03:30N 55°28' E 008°27'0 0.0
2018-May-19 03:00N 55°28' E 008°27'0 0.0
2018-May-19 02:30N 55°28' E 008°27'0 0.0
2018-May-19 02:00N 55°28' E 008°27'0 0.0
2018-May-19 01:30N 55°28' E 008°27'0 0.0
2018-May-19 01:00N 55°28' E 008°27'0 0.0
2018-May-19 00:30N 55°28' E 008°27'0 0.0
2018-May-19 00:00N 55°28' E 008°27'0 0.0
2018-May-18 23:30N 55°28' E 008°27'0 0.0
2018-May-18 23:00N 55°28' E 008°27'0 0.0
2018-May-18 22:30N 55°28' E 008°27'0 0.0
2018-May-18 22:00N 55°28' E 008°27'0 0.0
2018-May-18 21:30N 55°28' E 008°27'1 1.3
2018-May-18 21:00N 55°28' E 008°25'3 5.8
2018-May-18 20:30N 55°28' E 008°20'4 8.9
2018-May-18 20:00N 55°26' E 008°14'510.7
2018-May-18 19:30N 55°22' E 008°06'510.9
2018-May-18 19:00N 55°19' E 007°58'611.2
2018-May-18 18:30N 55°16' E 007°51'611.4
2018-May-18 18:00N 55°11' E 007°45'611.3
2018-May-18 17:30N 55°07' E 007°38'611.2
2018-May-18 17:00N 55°03' E 007°31'510.8
2018-May-18 16:30N 54°60' E 007°24'510.7
2018-May-18 16:00N 54°57' E 007°16'510.9
2018-May-18 15:30N 54°55' E 007°07'510.9
2018-May-18 15:00N 54°53' E 006°58'510.9
2018-May-18 14:30N 54°50' E 006°50'98 5.2
2018-May-17 19:34N 53°34' E 005°07'0 4.1
2018-May-17 19:29N 53°33' E 005°06'2 3.9
2018-May-17 19:00N 53°32' E 005°04'2 4.1
2018-May-17 18:30N 53°30' E 005°02'2 3.9
2018-May-17 18:00N 53°29' E 005°00'2 3.7
2018-May-17 17:30N 53°27' E 004°59'2 3.6
2018-May-17 17:00N 53°25' E 004°57'2 3.2
2018-May-17 16:30N 53°24' E 004°56'1 2.7
2018-May-17 16:00N 53°23' E 004°56'1 2.4
2018-May-17 15:30N 53°22' E 004°55'1 2.6
2018-May-17 15:00N 53°20' E 004°55'2 3.5
2018-May-17 14:30N 53°19' E 004°58'4 8.0
2018-May-17 14:00N 53°19' E 005°04'4 8.1
2018-May-17 13:30N 53°18' E 005°11'4 8.3
2018-May-17 13:00N 53°14' E 005°13'5 9.3
2018-May-17 12:30N 53°11' E 005°20'3 6.8
2018-May-17 12:00N 53°11' E 005°26'0 0.6
2018-May-17 11:30N 53°11' E 005°26'0 0.0
2018-May-17 11:00N 53°11' E 005°26'0 0.0
2018-May-17 10:30N 53°11' E 005°26'0 0.0
2018-May-17 10:00N 53°11' E 005°26'0 0.0
2018-May-17 09:30N 53°11' E 005°26'0 0.0
2018-May-17 09:00N 53°11' E 005°26'0 0.0
2018-May-17 08:30N 53°11' E 005°26'0 0.0
2018-May-17 08:00N 53°11' E 005°26'0 0.0
2018-May-17 07:30N 53°11' E 005°26'0 0.0
2018-May-17 07:00N 53°11' E 005°26'0 0.0
2018-May-17 06:30N 53°11' E 005°26'0 0.0
2018-May-17 06:00N 53°11' E 005°26'0 0.0
2018-May-17 05:30N 53°11' E 005°26'0 0.0
2018-May-17 05:00N 53°11' E 005°26'0 0.0
2018-May-17 04:30N 53°11' E 005°26'0 0.0
2018-May-17 04:00N 53°11' E 005°26'0 0.0
2018-May-17 03:30N 53°11' E 005°26'0 0.0
2018-May-17 03:00N 53°11' E 005°26'0 0.0
2018-May-17 02:30N 53°11' E 005°26'0 0.0
2018-May-17 02:00N 53°11' E 005°26'0 0.0
2018-May-17 01:30N 53°11' E 005°26'0 0.0
2018-May-17 01:00N 53°11' E 005°26'0 0.0
2018-May-17 00:30N 53°11' E 005°26'0 0.0
2018-May-17 00:00N 53°11' E 005°26'0 0.0
2018-May-16 23:30N 53°11' E 005°26'0 0.0
2018-May-16 23:00N 53°11' E 005°26'0 0.0
2018-May-16 22:30N 53°11' E 005°26'0 0.0
2018-May-16 22:00N 53°11' E 005°26'0 0.0
2018-May-16 21:30N 53°11' E 005°26'0 0.0
2018-May-16 21:00N 53°11' E 005°26'0 0.0
2018-May-16 20:30N 53°11' E 005°26'0 0.0
2018-May-16 20:00N 53°11' E 005°26'0 0.0
2018-May-16 19:30N 53°11' E 005°26'0 0.0
2018-May-16 19:00N 53°11' E 005°26'0 0.0
2018-May-16 18:30N 53°11' E 005°26'0 0.0
2018-May-16 18:00N 53°11' E 005°26'0 0.0
2018-May-16 17:30N 53°11' E 005°26'0 0.0
2018-May-16 17:00N 53°11' E 005°26'0 0.4
2018-May-16 16:30N 53°11' E 005°26'0 0.0
2018-May-16 16:00N 53°11' E 005°26'0 0.0
2018-May-16 15:30N 53°11' E 005°26'0 0.0
2018-May-16 15:00N 53°11' E 005°26'0 0.0
2018-May-16 14:30N 53°11' E 005°26'0 0.0
2018-May-16 14:00N 53°11' E 005°26'0 0.0
2018-May-16 13:30N 53°11' E 005°26'0 0.0
2018-May-16 13:00N 53°11' E 005°26'0 0.0
2018-May-16 12:30N 53°11' E 005°26'0 0.0
2018-May-16 12:00N 53°11' E 005°26'0 0.0
2018-May-16 11:30N 53°11' E 005°26'0 0.0
2018-May-16 11:00N 53°11' E 005°26'0 0.0
2018-May-16 10:30N 53°11' E 005°26'1 2.7
2018-May-16 10:01N 53°10' E 005°24'2 3.5
2018-May-16 09:30N 53°11' E 005°22'3 5.3
2018-May-16 09:00N 53°11' E 005°26'0 0.0
2018-May-16 08:30N 53°11' E 005°26'0 0.3
2018-May-16 08:00N 53°11' E 005°26'0 0.0
2018-May-16 07:30N 53°11' E 005°26'0 0.0
2018-May-16 07:00N 53°11' E 005°26'0 0.0
2018-May-16 06:30N 53°11' E 005°26'0 0.0
2018-May-16 06:00N 53°11' E 005°26'0 0.0
2018-May-16 05:30N 53°11' E 005°26'0 0.0
2018-May-16 05:00N 53°11' E 005°26'0 0.0
2018-May-16 04:30N 53°11' E 005°26'0 0.0
2018-May-16 04:00N 53°11' E 005°26'0 0.0
2018-May-16 03:30N 53°11' E 005°26'0 0.0
2018-May-16 03:00N 53°11' E 005°26'0 0.0
2018-May-16 02:30N 53°11' E 005°26'0 0.0
2018-May-16 02:00N 53°11' E 005°26'0 0.0
2018-May-16 01:30N 53°11' E 005°26'0 0.0
2018-May-16 01:00N 53°11' E 005°26'0 0.0
2018-May-16 00:30N 53°11' E 005°26'0 0.0
2018-May-16 00:00N 53°11' E 005°26'0 0.0
2018-May-15 23:30N 53°11' E 005°26'0 0.0
2018-May-15 23:00N 53°11' E 005°26'0 0.0
2018-May-15 22:30N 53°11' E 005°26'0 0.0
2018-May-15 22:00N 53°11' E 005°26'0 0.0
2018-May-15 21:30N 53°11' E 005°26'0 0.0
2018-May-15 21:00N 53°11' E 005°26'0 0.0
2018-May-15 20:30N 53°11' E 005°26'0 0.0
2018-May-15 20:00N 53°11' E 005°26'0 0.0
2018-May-15 19:30N 53°11' E 005°26'0 0.0
2018-May-15 19:00N 53°11' E 005°26'0 0.0
2018-May-15 18:30N 53°11' E 005°26'0 0.0
2018-May-15 18:00N 53°11' E 005°26'0 0.0
2018-May-15 17:30N 53°11' E 005°26'0 0.0
2018-May-15 17:00N 53°11' E 005°26'0 0.0
2018-May-15 16:30N 53°11' E 005°26'0 0.0
2018-May-15 16:00N 53°11' E 005°26'0 0.4
2018-May-15 15:30N 53°11' E 005°26'0 0.0
2018-May-15 15:00N 53°11' E 005°26'0 0.0
2018-May-15 14:30N 53°11' E 005°26'0 0.4
2018-May-15 14:00N 53°11' E 005°26'0 0.0
2018-May-15 13:30N 53°11' E 005°26'0 0.0
2018-May-15 13:00N 53°11' E 005°26'0 0.0
2018-May-15 12:30N 53°11' E 005°26'0 0.0
2018-May-15 12:00N 53°11' E 005°26'0 0.0
2018-May-15 11:30N 53°11' E 005°26'0 0.0
2018-May-15 11:00N 53°11' E 005°26'0 0.0
2018-May-15 10:30N 53°11' E 005°26'0 0.0
2018-May-15 10:00N 53°11' E 005°26'0 0.0
2018-May-15 09:30N 53°11' E 005°26'0 0.0
2018-May-15 09:00N 53°11' E 005°26'0 0.0
2018-May-15 08:30N 53°11' E 005°26'0 0.0
2018-May-15 08:00N 53°11' E 005°26'0 0.0
2018-May-15 07:30N 53°11' E 005°26'0 0.0
2018-May-15 07:00N 53°11' E 005°26'0 0.0
2018-May-15 06:30N 53°11' E 005°26'0 0.0
2018-May-15 06:00N 53°11' E 005°26'0 0.0
2018-May-15 05:30N 53°11' E 005°26'0 0.0
2018-May-15 05:00N 53°11' E 005°26'0 0.0
2018-May-15 04:30N 53°11' E 005°26'0 0.0
2018-May-15 04:00N 53°11' E 005°26'0 0.0
2018-May-15 03:30N 53°11' E 005°26'0 0.0
2018-May-15 03:00N 53°11' E 005°26'0 0.0
2018-May-15 02:30N 53°11' E 005°26'0 0.0
2018-May-15 02:00N 53°11' E 005°26'0 0.0
2018-May-15 01:30N 53°11' E 005°26'0 0.0
2018-May-15 01:00N 53°11' E 005°26'0 0.0
2018-May-15 00:30N 53°11' E 005°26'0 0.0
2018-May-15 00:00N 53°11' E 005°26'0 0.0
2018-May-14 23:30N 53°11' E 005°26'0 0.0
2018-May-14 23:00N 53°11' E 005°26'0 0.0
2018-May-14 22:30N 53°11' E 005°26'0 0.0
2018-May-14 22:00N 53°11' E 005°26'0 0.0
2018-May-14 21:30N 53°11' E 005°26'0 0.0
2018-May-14 21:00N 53°11' E 005°26'0 0.0
2018-May-14 20:30N 53°11' E 005°26'0 0.0
2018-May-14 20:00N 53°11' E 005°26'0 0.0
2018-May-14 19:30N 53°11' E 005°26'0 0.0
2018-May-14 19:00N 53°11' E 005°26'0 0.0
2018-May-14 18:30N 53°11' E 005°26'0 0.0
2018-May-14 18:00N 53°11' E 005°26'0 0.0
2018-May-14 17:30N 53°11' E 005°26'0 0.0
2018-May-14 17:00N 53°11' E 005°26'  

Dump ship's entire track history